Ashland, Montana
Current Conditions -  °F | °C
As of 7:53 PM on Friday 19 Dec 2014 (Local Time) from KMLS Reporting Station
Clear Clear  
Wind Chill: 23°   Ceiling: Unl
Heat Index: 30°   Visibility: 10mi
Dew Point: 23°   Wind: 7mph
Humidity: 75%   Direction: 140°SE
Pressure: 29.87"   Gusts: NA
Location:  45.62°N, 106.31°W
Report Text: KMLS 200253Z AUTO 14006KT 10SM CLR M01/M05 A2987 RMK AO2 SLP144 T10111050 56004
Loading
Personal Weather Stations






























Interactive Weather Map New forecast layout! Learn more

10-Day Weather Forecast

Advertisements
Track Severe Weather on mobile